createdAt,value
2022-08-17T00:08:05.942Z,23.5
2022-08-17T00:23:19.187Z,23.4
2022-08-17T00:38:28.958Z,23.2
2022-08-17T00:53:38.010Z,23
2022-08-17T01:08:47.549Z,22.9
2022-08-17T01:23:57.059Z,22.8
2022-08-17T01:39:08.212Z,22.6
2022-08-17T01:54:17.657Z,22.5
2022-08-17T02:09:29.698Z,22.3
2022-08-17T02:24:58.083Z,22.1
2022-08-17T02:40:12.282Z,22
2022-08-17T02:55:23.266Z,21.9
2022-08-17T03:10:33.325Z,21.8
2022-08-17T03:25:44.035Z,21.6
2022-08-17T03:40:55.998Z,21.5
2022-08-17T03:56:09.245Z,21.5
2022-08-17T04:11:18.237Z,21.3
2022-08-17T04:26:52.415Z,21.2
2022-08-17T04:42:04.694Z,21.2
2022-08-17T04:57:13.993Z,21.2
2022-08-17T05:12:23.353Z,21.2
2022-08-17T05:27:35.356Z,21.3
2022-08-17T05:42:45.333Z,21.5
2022-08-17T05:57:55.986Z,21.7
2022-08-17T06:13:09.275Z,22
2022-08-17T06:28:19.130Z,22.1
2022-08-17T06:43:29.332Z,22.4
2022-08-17T06:58:38.855Z,22.6
2022-08-17T07:13:51.175Z,22.7
2022-08-17T07:29:01.150Z,22.8
2022-08-17T07:44:10.573Z,23
2022-08-17T07:59:23.130Z,23.3
2022-08-17T08:14:42.856Z,23.7
2022-08-17T08:29:52.504Z,24.1
2022-08-17T08:45:04.017Z,24.6
2022-08-17T09:00:15.299Z,25
2022-08-17T09:15:24.567Z,25.4
2022-08-17T09:30:34.483Z,25.7
2022-08-17T09:45:44.337Z,26.1
2022-08-17T10:00:53.708Z,26.5
2022-08-17T10:16:09.921Z,27
2022-08-17T10:31:36.214Z,27.4
2022-08-17T10:46:46.669Z,27.9
2022-08-17T11:01:56.684Z,28.1
2022-08-17T11:17:10.001Z,28.1
2022-08-17T11:32:21.038Z,28
2022-08-17T11:47:32.677Z,28
2022-08-17T12:02:45.719Z,27.9
2022-08-17T12:17:58.594Z,27.8
2022-08-17T12:33:09.712Z,27.9
2022-08-17T12:48:19.135Z,28.3
2022-08-17T13:03:31.809Z,28.9
2022-08-17T13:18:46.693Z,29.6
2022-08-17T13:33:55.686Z,30.1
2022-08-17T13:49:05.169Z,30
2022-08-17T14:04:14.982Z,29.7
2022-08-17T14:19:24.653Z,29.4
2022-08-17T14:34:32.951Z,29
2022-08-17T14:49:42.308Z,28.6
2022-08-17T15:04:51.512Z,28
2022-08-17T15:19:59.980Z,27.2
2022-08-17T15:35:09.889Z,26.1
2022-08-17T15:50:18.231Z,24.5
2022-08-17T16:05:27.700Z,24.8
2022-08-17T16:20:41.897Z,25.2
2022-08-17T16:35:51.689Z,25.4
2022-08-17T16:51:03.583Z,25.6
2022-08-17T17:06:14.484Z,25.5
2022-08-17T17:21:24.206Z,25.4
2022-08-17T17:36:33.245Z,25.3
2022-08-17T17:51:45.619Z,25.1
2022-08-17T18:07:28.466Z,24.9
2022-08-17T18:22:38.200Z,24.6
2022-08-17T18:37:47.581Z,24.6
2022-08-17T18:52:56.861Z,24.6
2022-08-17T19:08:06.498Z,24.4
2022-08-17T19:23:20.651Z,24.3
2022-08-17T19:38:30.134Z,24.1
2022-08-17T19:54:02.030Z,23.9
2022-08-17T20:09:17.091Z,23.6
2022-08-17T20:24:26.071Z,23.4
2022-08-17T20:39:35.476Z,23.2
2022-08-17T20:54:45.175Z,23.1
2022-08-17T21:09:54.081Z,23.1
2022-08-17T21:25:03.370Z,23
2022-08-17T21:40:12.999Z,22.9
2022-08-17T21:55:22.666Z,22.8
2022-08-17T22:10:31.982Z,22.7
2022-08-17T22:25:41.267Z,22.5
2022-08-17T22:40:50.496Z,22.2
2022-08-17T22:56:00.227Z,22.2
2022-08-17T23:11:10.501Z,22.1
2022-08-17T23:26:19.763Z,22
2022-08-17T23:41:29.143Z,21.8
2022-08-17T23:56:38.783Z,21.6
